x

Southeast Bering Sea -205nm Wnw Of Dutch Harbor, Ak (46073) Wave Buoy

6:50pm - Tue 22nd Jul 2014 All times are UTC.

  • Sig Wave height 2.6ft
  • Swell Direction
  • Peak Period 12s
  • Average Period 5s
  • Wind
    11mph, 13mph gusts
  • Sea Temp 51°f
  • 空気 Temp 51°f
  • Sea Pressure 1017.3mb

More Historic Weather Station data

Upgrade to MSW Pro to gain access to the past 30 days of data for over 8000 Wavebouys and Weather Stations around the globe.

Join Pro

Comparision Forecast

View Surf forecast
   
Tue 07/22 6:50pm 2.5ft 12s 5s 11 13 mph 1017.3mb 51f 51f
5:50pm 2.5ft 14s 5s 13 16 mph 1016.9mb 51f 51f
4:50pm 3ft 6s 5s 13 16 mph 1016.4mb 52f 51f
3:50pm 3ft 6s 5s 13 16 mph 1016.3mb 51f 51f
2:50pm 3ft 7s 5s 11 13 mph 1016.3mb 51f 51f
1:50pm 3ft 8s 5s 11 13 mph 1016mb 52f 51f
12:50pm 3.5ft 6s 6s 11
mph
1015.6mb 52f 51f
11:50am 3ft 6s 6s 9 11 mph 1015.6mb 52f 51f
10:50am 2.5ft 7s 5s 9 11 mph 1015.6mb 52f 51f
9:50am 2.5ft 7s 5s 11
mph
1015.6mb 52f 51f
8:50am 2.5ft 14s 5s 4
mph
1015.6mb 52f 52f
7:50am 2.5ft 8s 5s 2 4 mph 1015.4mb 53f 52f
6:50am 2.5ft 13s 6s 2
mph
1015.2mb 53f 51f
5:50am 2.5ft 13s 6s 2
mph
1015.1mb 53f 51f
4:50am 2ft 14s 6s 2
mph
1015mb 53f 52f
3:50am 2.5ft 14s 6s 2
mph
1015mb 53f 52f
2:50am 2.5ft 12s 5s 2
mph
1015.1mb 53f 52f
1:50am 2.5ft 5s 5s 4
mph
1015mb 52f 51f
12:50am 3ft 6s 5s 4
mph
1015mb 52f 51f
Mon 07/21 11:50pm 2.5ft 6s 6s 4
mph
1015.4mb 52f 51f
10:50pm 2.5ft 13s 6s 2 4 mph 1015.7mb 52f 51f
9:50pm 2.5ft 7s 6s 4
mph
1015.8mb 51f 51f
8:50pm 2.5ft 8s 6s 7
mph
1015.8mb 51f 51f
7:50pm 2.5ft 8s 6s 7
mph
1016mb 51f 51f
6:50pm 2.5ft 8s 6s 4 7 mph 1016.1mb 51f 50f
5:50pm 2.5ft 14s 6s 7 9 mph 1016.2mb 51f 50f
4:50pm 2.5ft 14s 6s 7
mph
1016.2mb 51f 50f
3:50pm 2.5ft 14s 6s 7 9 mph 1016.2mb 51f 49f
2:50pm 2.5ft 5s 6s 4 7 mph 1016.5mb 51f 50f
1:50pm 2.5ft 6s 5s 4 7 mph 1016.6mb 51f 50f
12:50pm 2.5ft 14s 5s 2 4 mph 1016.8mb 51f 50f
11:50am 2.5ft 6s 6s 2 4 mph 1017.1mb 51f 50f
10:50am 2.5ft 6s 6s 7 9 mph 1017.3mb 51f 50f
9:50am 2.5ft 7s 6s 4 7 mph 1017.4mb 51f 50f
8:50am 3ft 8s 6s 7 9 mph 1017.5mb 51f 50f
7:50am 3.5ft 8s 7s 7 9 mph 1017.8mb 51f 50f
6:50am 3ft 8s 6s 4 7 mph 1017.7mb 51f 50f
5:50am 2.5ft 9s 6s 4
mph
1017.9mb 51f 50f
4:50am 2.5ft 6s 6s 7
mph
1018.3mb 51f 49f
3:50am 3ft 10s 6s 9 11 mph 1018.5mb 51f 49f
2:50am 3ft 6s 6s 4 7 mph 1018.4mb 51f 48f
1:50am 3ft 6s 5s 7 9 mph 1018.8mb 51f 49f
12:50am 3ft 6s 5s 9
mph
1019.2mb 51f 49f
Sun 07/20 11:50pm 3ft 6s 5s 9 11 mph 1019.5mb 51f 49f
10:50pm 3ft 5s 5s 9
mph
1019.7mb 51f 49f
9:50pm 3ft 11s 5s 7 9 mph 1020mb 51f 49f
8:50pm 3ft 6s 5s 7
mph
1020.5mb 51f 49f
7:50pm 3ft 9s 5s 7 9 mph 1020.3mb 51f 48f
6:50pm 3.5ft 10s 5s 9 11 mph 1020.5mb 51f 49f
5:50pm 3.5ft 10s 5s 7 11 mph 1020.4mb 51f 49f
4:50pm 3ft 10s 5s 9 11 mph 1020.5mb 51f 49f
3:50pm 3ft 10s 5s 13 16 mph 1020.3mb 51f 49f
2:50pm 3ft 10s 5s 11
mph
1020mb 51f 49f
1:50pm 3.5ft 10s 5s 11 13 mph 1020mb 51f 49f
12:50pm 3.5ft 11s 5s 11 16 mph 1020.3mb 51f 49f
11:50am 3ft 6s 5s 11 13 mph 1020.4mb 51f 49f
10:50am 3.5ft 11s 5s 11 13 mph 1020.5mb 51f 49f
9:50am 3.5ft 11s 5s 11 13 mph 1020.4mb 51f 50f
8:50am 3.5ft 7s 5s 9 11 mph 1020.1mb 51f 50f
7:50am 3.5ft 11s 5s 13 16 mph 1019.9mb 51f 50f
6:50am 3.5ft 11s 5s 11 16 mph 1019.7mb 51f 50f
5:50am 3.5ft 7s 6s 11 13 mph 1019.7mb 51f 51f
4:50am 3.5ft 10s 6s 11 13 mph 1019.4mb 51f 51f
3:50am 3.5ft 6s 5s 11 13 mph 1019.1mb 51f 51f
2:50am 3.5ft 7s 5s 11
mph
1019.4mb 51f 51f
1:50am 3.5ft 7s 6s 11
mph
1019.5mb 51f 51f
12:50am 3.5ft 7s 6s 9 11 mph 1019.4mb 51f 51f
Sat 07/19 11:50pm 3.5ft 7s 5s 11 13 mph 1019.4mb 51f 51f
10:50pm 4ft 7s 5s 11 13 mph 1019.4mb 51f 51f
9:50pm 4ft 6s 5s 11 13 mph 1019.2mb 51f 50f
8:50pm 4ft 7s 6s 13 16 mph 1019.1mb 51f 50f
7:50pm 4ft 7s 6s 13 16 mph 1018.8mb 51f 49f
6:50pm 3.5ft 7s 6s 13 16 mph 1018.4mb 51f 49f
5:50pm 3.5ft 8s 6s 13 16 mph 1018.3mb 51f 49f
4:50pm 3.5ft 8s 6s 11 16 mph 1018mb 51f 50f
3:50pm 3.5ft 8s 6s 11 13 mph 1017.7mb 51f 50f
2:50pm 3.5ft 8s 6s 9 11 mph 1017.6mb 51f 50f
1:50pm 3.5ft 8s 6s 9 11 mph 1017.7mb 51f 50f
12:50pm 3.5ft 8s 6s 9 11 mph 1017.8mb 51f 50f
11:50am 3.5ft 8s 6s 9
mph
1017.7mb 51f 50f
10:50am 3.5ft 9s 6s 7 9 mph 1017.8mb 51f 50f
9:50am 3.5ft 7s 6s 9
mph
1017.7mb 51f 50f
8:50am 3.5ft 6s 6s 9 11 mph 1017.3mb 51f 50f
7:50am 3.5ft 6s 6s 9 11 mph 1017mb 51f 50f
6:50am 3.5ft 9s 6s 9 11 mph 1016.7mb 51f 50f
5:50am 3.5ft 9s 6s 9
mph
1016.5mb 51f 50f
4:50am 3.5ft 9s 6s 9 11 mph 1016.6mb 51f 50f
3:50am 3.5ft 9s 6s 9 11 mph 1016.5mb 51f 50f
2:50am 3.5ft 7s 5s 9 11 mph 1016.4mb 51f 50f
1:50am 3.5ft 6s 5s 11
mph
1016.4mb 50f 50f
12:50am 3.5ft 7s 5s 11 13 mph 1016.4mb 51f 50f
Fri 07/18 11:50pm 3.5ft 7s 5s 11 13 mph 1016.4mb 51f 50f
10:50pm 3.5ft 6s 5s 13
mph
1016.2mb 50f 50f
9:50pm 3.5ft 7s 5s 11 13 mph 1016.2mb 50f 50f
8:50pm 4ft 6s 5s 11 16 mph 1015.9mb 50f 50f
7:50pm 3.5ft 7s 5s 13
mph
1015.9mb 50f 50f